Terminal Aerodrome Forecast
Issued by NWS Northern Indiana

Home | Current Version | Previous Version | Graphics & Text | Print | Product List | Glossary On
Versions: 1 2 3 4 5 6 7 8 9 10 11 12 13 14 15 16 17 18
549
FTUS43 KIWX 191003 AAA
TAFFWA
TAF AMD
KFWA 191003Z 1910/2006 19004KT 4SM -RA BR SCT015 BKN025
      WS020/23055KT
      TEMPO 1910/1912 2SM RA BR BKN015
     FM191400 19010KT 2SM RA BR OVC007 WS020/23055KT
     FM192200 21014G23KT 4SM -RA BR OVC012 WS020/23055KT=

USA.gov is the U.S. government's official web portal to all federal, state and local government web resources and services.